Time;durP1;ratioP1;P1;durP2;ratioP2;P2;SDS_P1;SDS_P2;PMS_P1;PMS_P2;Temp;Humidity;BMP_temperature;BMP_pressure;BME280_temperature;BME280_humidity;BME280_pressure;Samples;Min_cycle;Max_cycle;Signal;HPM_P1;HPM_P2
2024/01/15 00:01:34;;;;;;;1.55;1.40;;;5.50;81.30;;;;;;4738277;30;20028;-88
2024/01/15 00:04:00;;;;;;;1.45;1.33;;;5.50;81.30;;;;;;4738440;30;20059;-88
2024/01/15 00:06:28;;;;;;;1.58;1.30;;;5.50;81.30;;;;;;4738521;30;20047;-88
2024/01/15 00:08:54;;;;;;;1.48;1.38;;;5.50;81.30;;;;;;4733069;30;20111;-88
2024/01/15 00:11:20;;;;;;;2.00;1.40;;;5.50;81.30;;;;;;4719469;30;20103;-88
2024/01/15 00:13:46;;;;;;;1.33;1.20;;;5.50;81.30;;;;;;4717773;30;20036;-87
2024/01/15 00:16:12;;;;;;;1.38;1.27;;;5.50;81.30;;;;;;4748246;30;20033;-88
2024/01/15 00:18:37;;;;;;;1.40;1.30;;;5.40;81.30;;;;;;4733764;30;20509;-87
2024/01/15 00:21:03;;;;;;;1.58;1.48;;;5.40;81.30;;;;;;4731152;30;20043;-87
2024/01/15 00:23:29;;;;;;;1.40;1.30;;;5.40;81.30;;;;;;4743652;30;20103;-87
2024/01/15 00:25:55;;;;;;;1.30;1.20;;;5.40;81.30;;;;;;4722325;30;20028;-88
2024/01/15 00:28:21;;;;;;;1.42;1.30;;;5.40;81.30;;;;;;4738307;30;20035;-88
2024/01/15 00:30:46;;;;;;;1.38;1.27;;;5.40;81.30;;;;;;4733482;30;20097;-88
2024/01/15 00:33:14;;;;;;;1.58;1.48;;;5.40;81.30;;;;;;4744637;30;20032;-88
2024/01/15 00:35:40;;;;;;;1.67;1.30;;;5.40;81.30;;;;;;4735068;30;20056;-88
2024/01/15 00:38:07;;;;;;;1.40;1.30;;;5.40;81.30;;;;;;4730560;30;20276;-88
2024/01/15 00:40:33;;;;;;;1.33;1.27;;;5.40;81.30;;;;;;4728750;30;20090;-88
2024/01/15 00:42:58;;;;;;;1.40;1.30;;;5.40;81.30;;;;;;4732682;30;20043;-87
2024/01/15 00:45:24;;;;;;;1.35;1.20;;;5.30;81.30;;;;;;4714189;30;20059;-88
2024/01/15 00:47:50;;;;;;;2.75;1.40;;;5.30;81.30;;;;;;4741939;30;20583;-89
2024/01/15 00:50:17;;;;;;;1.23;1.23;;;5.30;81.30;;;;;;4720937;30;20036;-88
2024/01/15 00:52:42;;;;;;;1.20;1.20;;;5.30;81.30;;;;;;4731770;30;20097;-87
2024/01/15 00:55:08;;;;;;;1.65;1.30;;;5.30;81.30;;;;;;4735573;30;20040;-88
2024/01/15 00:57:34;;;;;;;1.33;1.23;;;5.30;81.30;;;;;;4747355;30;20062;-88
2024/01/15 01:00:00;;;;;;;1.27;1.20;;;5.30;81.30;;;;;;4743329;30;20399;-88
2024/01/15 01:02:26;;;;;;;1.95;1.73;;;5.20;81.30;;;;;;4734977;30;20028;-88
2024/01/15 01:04:52;;;;;;;1.40;1.30;;;5.20;81.30;;;;;;4744181;30;20024;-87
2024/01/15 01:07:19;;;;;;;2.00;1.33;;;5.20;81.30;;;;;;4743650;30;20512;-88
2024/01/15 01:09:45;;;;;;;1.10;1.10;;;5.20;81.40;;;;;;4729996;30;20032;-88
2024/01/15 01:12:11;;;;;;;1.35;1.25;;;5.20;81.40;;;;;;4731852;30;20121;-88
2024/01/15 01:14:37;;;;;;;2.00;1.33;;;5.20;81.40;;;;;;4734212;30;20314;-88
2024/01/15 01:17:03;;;;;;;1.27;1.20;;;5.20;81.40;;;;;;4715944;30;20518;-89
2024/01/15 01:19:30;;;;;;;1.30;1.20;;;5.20;81.40;;;;;;4741603;30;20036;-88
2024/01/15 01:21:56;;;;;;;1.38;1.30;;;5.10;81.30;;;;;;4734739;30;20036;-88
2024/01/15 01:24:21;;;;;;;1.30;1.30;;;5.10;81.40;;;;;;4720386;30;20036;-88
2024/01/15 01:26:47;;;;;;;1.23;1.17;;;5.10;81.40;;;;;;4715731;30;20035;-88
2024/01/15 01:29:13;;;;;;;1.95;1.30;;;5.10;81.40;;;;;;4742011;30;20111;-89
2024/01/15 01:31:47;;;;;;;1.55;1.27;;;5.10;81.40;;;;;;4718185;30;20036;-87
2024/01/15 01:34:15;;;;;;;1.55;1.30;;;5.10;81.40;;;;;;4734536;30;20036;-88
2024/01/15 01:36:41;;;;;;;1.20;1.20;;;5.10;81.40;;;;;;4734905;30;20081;-88
2024/01/15 01:39:07;;;;;;;2.63;1.50;;;5.10;81.40;;;;;;4726405;30;20047;-87
2024/01/15 01:41:33;;;;;;;3.55;1.50;;;5.10;81.40;;;;;;4712800;30;20048;-88
2024/01/15 01:43:58;;;;;;;2.15;1.45;;;5.10;81.40;;;;;;4732701;30;20087;-88
2024/01/15 01:46:26;;;;;;;1.33;1.20;;;5.10;81.40;;;;;;4731762;30;20024;-88
2024/01/15 01:48:53;;;;;;;1.40;1.30;;;5.00;81.30;;;;;;4749443;30;20028;-89
2024/01/15 01:51:21;;;;;;;1.42;1.33;;;5.00;81.30;;;;;;4728626;30;20342;-88
2024/01/15 01:53:48;;;;;;;1.40;1.30;;;5.00;81.30;;;;;;4734168;30;20104;-89
2024/01/15 01:56:14;;;;;;;1.27;1.20;;;5.00;82.00;;;;;;4729392;30;20036;-88
2024/01/15 01:58:40;;;;;;;1.25;1.15;;;5.00;81.40;;;;;;4725229;30;20094;-89
2024/01/15 02:01:07;;;;;;;1.70;1.30;;;5.00;81.40;;;;;;4712497;30;20020;-88
2024/01/15 02:03:33;;;;;;;1.63;1.30;;;5.00;81.40;;;;;;4726777;30;20498;-89
2024/01/15 02:06:00;;;;;;;2.40;1.50;;;5.00;81.40;;;;;;4738739;30;20036;-89
2024/01/15 02:08:26;;;;;;;1.50;1.40;;;5.00;81.30;;;;;;4730745;30;20036;-89
2024/01/15 02:10:52;;;;;;;1.73;1.20;;;5.00;81.30;;;;;;4744202;30;20068;-88
2024/01/15 02:13:19;;;;;;;2.20;1.45;;;5.00;81.30;;;;;;4750266;30;20055;-88
2024/01/15 02:15:44;;;;;;;1.30;1.20;;;5.00;81.30;;;;;;4730766;30;20056;-89
2024/01/15 02:18:10;;;;;;;1.50;1.40;;;4.90;81.30;;;;;;4725434;30;20071;-89
2024/01/15 02:20:36;;;;;;;1.70;1.25;;;4.90;81.40;;;;;;4744352;30;20122;-88
2024/01/15 02:23:02;;;;;;;1.63;1.35;;;4.90;81.30;;;;;;4725273;30;20052;-89
2024/01/15 02:25:27;;;;;;;1.83;1.30;;;4.90;81.30;;;;;;4730953;30;20083;-88
2024/01/15 02:27:53;;;;;;;1.40;1.30;;;4.90;81.30;;;;;;4719087;30;20529;-88
2024/01/15 02:30:19;;;;;;;1.80;1.50;;;4.90;81.40;;;;;;4736562;30;20090;-88
2024/01/15 02:32:45;;;;;;;1.75;1.20;;;4.90;81.40;;;;;;4744427;30;20037;-88
2024/01/15 02:35:11;;;;;;;1.55;1.33;;;4.90;81.30;;;;;;4743679;30;20067;-89
2024/01/15 02:37:37;;;;;;;1.85;1.40;;;4.80;81.30;;;;;;4723319;30;20033;-88
2024/01/15 02:40:03;;;;;;;1.45;1.27;;;4.80;81.30;;;;;;4743417;30;20043;-87
2024/01/15 02:42:29;;;;;;;1.95;1.60;;;4.80;81.30;;;;;;4736611;30;20051;-88
2024/01/15 02:44:54;;;;;;;1.65;1.33;;;4.80;81.30;;;;;;4736287;30;20028;-88
2024/01/15 02:47:20;;;;;;;2.70;1.48;;;4.80;81.40;;;;;;4736213;30;20367;-88
2024/01/15 02:49:46;;;;;;;1.42;1.33;;;4.80;81.30;;;;;;4746294;30;20128;-88
2024/01/15 02:52:11;;;;;;;2.03;1.35;;;4.80;81.40;;;;;;4747043;30;20031;-88
2024/01/15 02:54:37;;;;;;;1.23;1.20;;;4.80;81.40;;;;;;4722072;30;20406;-88
2024/01/15 02:57:03;;;;;;;1.80;1.30;;;4.80;81.40;;;;;;4743537;30;20036;-88
2024/01/15 02:59:29;;;;;;;2.67;1.35;;;4.80;81.40;;;;;;4754853;30;20474;-89
2024/01/15 03:01:54;;;;;;;1.33;1.23;;;4.80;81.40;;;;;;4724301;30;20032;-89
2024/01/15 03:04:20;;;;;;;1.77;1.40;;;4.80;81.40;;;;;;4732143;30;20075;-89
2024/01/15 03:06:46;;;;;;;1.83;1.30;;;4.80;81.40;;;;;;4724085;30;20035;-88
2024/01/15 03:09:11;;;;;;;1.50;1.40;;;4.80;81.40;;;;;;4730839;30;20054;-88
2024/01/15 03:11:38;;;;;;;2.05;1.60;;;4.70;81.30;;;;;;4741864;30;20501;-89
2024/01/15 03:14:04;;;;;;;1.58;1.40;;;4.70;81.40;;;;;;4736443;30;20074;-89
2024/01/15 03:16:30;;;;;;;1.63;1.45;;;4.70;81.30;;;;;;4741296;30;20490;-90
2024/01/15 03:18:56;;;;;;;1.70;1.60;;;4.70;81.40;;;;;;4733301;30;20038;-88
2024/01/15 03:21:21;;;;;;;2.08;1.35;;;4.70;81.40;;;;;;4737759;30;20424;-88
2024/01/15 03:23:47;;;;;;;1.25;1.15;;;4.70;81.40;;;;;;4745590;30;20028;-88
2024/01/15 03:26:13;;;;;;;1.23;1.13;;;4.70;81.40;;;;;;4747373;30;20044;-88
2024/01/15 03:28:38;;;;;;;1.38;1.20;;;4.70;81.40;;;;;;4722170;30;20032;-88
2024/01/15 03:31:04;;;;;;;1.77;1.35;;;4.70;81.30;;;;;;4733478;30;20024;-89
2024/01/15 03:33:30;;;;;;;2.83;1.35;;;4.70;81.60;;;;;;4743293;30;20417;-88
2024/01/15 03:35:55;;;;;;;1.52;1.33;;;4.70;81.40;;;;;;4721133;30;20060;-88
2024/01/15 03:38:23;;;;;;;1.67;1.40;;;4.70;81.30;;;;;;4735009;30;20108;-87
2024/01/15 03:40:48;;;;;;;1.75;1.60;;;4.70;81.40;;;;;;4737177;30;20070;-87
2024/01/15 03:43:14;;;;;;;1.42;1.30;;;4.70;81.40;;;;;;4738541;30;20063;-87
2024/01/15 03:45:40;;;;;;;1.77;1.67;;;4.70;81.40;;;;;;4733420;30;20032;-88
2024/01/15 03:48:06;;;;;;;2.25;1.30;;;4.60;81.30;;;;;;4732857;30;20110;-88
2024/01/15 03:50:31;;;;;;;1.38;1.27;;;4.60;81.30;;;;;;4732821;30;20032;-88
2024/01/15 03:52:57;;;;;;;1.95;1.50;;;4.70;81.30;;;;;;4713972;30;20082;-88
2024/01/15 03:55:23;;;;;;;1.98;1.40;;;4.70;81.40;;;;;;4733972;30;20036;-88
2024/01/15 03:57:48;;;;;;;1.10;1.10;;;4.60;81.30;;;;;;4738733;30;20036;-88
2024/01/15 04:00:17;;;;;;;2.15;1.50;;;4.60;81.30;;;;;;4747631;30;20027;-88
2024/01/15 04:02:44;;;;;;;1.75;1.30;;;4.60;81.30;;;;;;4731973;30;20055;-88
2024/01/15 04:05:10;;;;;;;1.50;1.30;;;4.60;81.30;;;;;;4731287;30;20024;-88
2024/01/15 04:07:35;;;;;;;1.75;1.38;;;4.60;81.40;;;;;;4734173;30;20042;-88
2024/01/15 04:10:01;;;;;;;1.40;1.30;;;4.60;81.40;;;;;;4728864;30;20487;-88
2024/01/15 04:12:27;;;;;;;1.50;1.40;;;4.60;81.40;;;;;;4726916;30;20036;-88
2024/01/15 04:14:53;;;;;;;2.45;1.60;;;4.60;81.40;;;;;;4736310;30;20044;-88
2024/01/15 04:17:18;;;;;;;1.30;1.20;;;4.60;81.40;;;;;;4719105;30;20059;-88
2024/01/15 04:19:44;;;;;;;1.30;1.20;;;4.60;81.40;;;;;;4735303;30;20033;-87
2024/01/15 04:22:10;;;;;;;1.98;1.40;;;4.50;81.40;;;;;;4744309;30;20047;-88
2024/01/15 04:24:36;;;;;;;1.67;1.58;;;4.50;81.30;;;;;;4728976;30;20044;-88
2024/01/15 04:27:01;;;;;;;1.60;1.38;;;4.60;82.00;;;;;;4746009;30;20114;-88
2024/01/15 04:29:27;;;;;;;1.40;1.30;;;4.60;81.40;;;;;;4730513;30;20036;-87
2024/01/15 04:31:53;;;;;;;1.73;1.40;;;4.50;81.30;;;;;;4748738;30;20577;-87
2024/01/15 04:34:19;;;;;;;1.40;1.30;;;4.50;81.30;;;;;;4720395;30;20068;-89
2024/01/15 04:36:44;;;;;;;1.30;1.20;;;4.50;81.40;;;;;;4719410;30;20052;-88
2024/01/15 04:39:11;;;;;;;1.30;1.20;;;4.50;81.40;;;;;;4714657;30;20040;-88
2024/01/15 04:41:37;;;;;;;1.40;1.30;;;4.50;81.40;;;;;;4722059;30;20037;-88
2024/01/15 04:44:03;;;;;;;1.40;1.30;;;4.50;81.40;;;;;;4734445;30;20043;-88
2024/01/15 04:46:29;;;;;;;2.25;1.20;;;4.50;81.30;;;;;;4723888;30;20111;-88
2024/01/15 04:48:54;;;;;;;1.40;1.30;;;4.50;81.40;;;;;;4728767;30;20029;-88
2024/01/15 04:51:20;;;;;;;1.63;1.20;;;4.50;81.40;;;;;;4719883;30;20517;-88
2024/01/15 04:53:46;;;;;;;1.83;1.20;;;4.50;81.30;;;;;;4719430;30;20435;-89
2024/01/15 04:56:12;;;;;;;1.33;1.23;;;4.50;81.40;;;;;;4743389;30;20040;-89
2024/01/15 04:58:37;;;;;;;1.30;1.30;;;4.50;81.40;;;;;;4737171;30;20127;-88
2024/01/15 05:01:03;;;;;;;2.17;1.40;;;4.50;81.40;;;;;;4744327;30;20373;-88
2024/01/15 05:03:29;;;;;;;1.25;1.23;;;4.50;81.40;;;;;;4727516;30;20029;-88
2024/01/15 05:05:55;;;;;;;1.63;1.40;;;4.50;81.40;;;;;;4722360;30;20067;-88
2024/01/15 05:08:21;;;;;;;1.42;1.35;;;4.50;81.40;;;;;;4723956;30;20035;-88
2024/01/15 05:10:47;;;;;;;2.13;1.70;;;4.50;81.40;;;;;;4744630;30;20046;-88
2024/01/15 05:13:13;;;;;;;1.30;1.20;;;4.50;81.40;;;;;;4732909;30;20036;-89
2024/01/15 05:15:39;;;;;;;1.30;1.20;;;4.40;81.30;;;;;;4746412;30;20049;-88
2024/01/15 05:18:06;;;;;;;1.20;1.20;;;4.50;81.40;;;;;;4726502;30;20034;-88
2024/01/15 05:20:31;;;;;;;1.40;1.30;;;4.50;81.40;;;;;;4724755;30;20031;-88
2024/01/15 05:22:57;;;;;;;1.63;1.30;;;4.50;81.40;;;;;;4721382;30;20119;-88
2024/01/15 05:25:23;;;;;;;1.80;1.40;;;4.40;81.30;;;;;;4733259;30;20028;-88
2024/01/15 05:27:48;;;;;;;1.40;1.30;;;4.40;81.30;;;;;;4714254;30;20374;-88
2024/01/15 05:30:14;;;;;;;2.78;1.40;;;4.40;81.30;;;;;;4733654;30;20028;-89
2024/01/15 05:32:40;;;;;;;1.50;1.40;;;4.50;81.40;;;;;;4717319;30;20087;-89
2024/01/15 05:35:06;;;;;;;1.52;1.42;;;4.40;81.30;;;;;;4746197;30;20063;-88
2024/01/15 05:37:32;;;;;;;1.40;1.30;;;4.40;81.30;;;;;;4733165;30;20064;-88
2024/01/15 05:39:58;;;;;;;1.55;1.40;;;4.40;81.30;;;;;;4730896;30;20383;-93
2024/01/15 05:42:24;;;;;;;2.25;1.40;;;4.40;81.40;;;;;;4717792;30;20454;-91
2024/01/15 05:44:49;;;;;;;2.15;1.48;;;4.40;81.40;;;;;;4741972;30;20028;-86
2024/01/15 05:47:15;;;;;;;1.48;1.30;;;4.40;81.40;;;;;;4708452;30;20055;-89
2024/01/15 05:49:41;;;;;;;1.77;1.50;;;4.40;81.40;;;;;;4731670;30;20033;-89
2024/01/15 05:52:07;;;;;;;1.33;1.27;;;4.40;81.40;;;;;;4727608;30;20036;-90
2024/01/15 05:54:32;;;;;;;1.50;1.40;;;4.40;81.40;;;;;;4742307;30;20067;-90
2024/01/15 05:56:58;;;;;;;1.65;1.48;;;4.40;81.40;;;;;;4727576;30;20024;-90
2024/01/15 05:59:25;;;;;;;1.77;1.40;;;4.40;81.40;;;;;;4730395;30;20532;-91
2024/01/15 06:01:51;;;;;;;2.15;1.63;;;4.40;81.40;;;;;;4715625;30;20042;-89
2024/01/15 06:04:16;;;;;;;1.67;1.40;;;4.40;81.40;;;;;;4747019;30;20048;-89
2024/01/15 06:06:42;;;;;;;1.70;1.27;;;4.40;81.40;;;;;;4715255;30;20138;-89
2024/01/15 06:09:08;;;;;;;1.45;1.35;;;4.40;81.40;;;;;;4732277;30;20262;-90
2024/01/15 06:11:34;;;;;;;2.08;1.40;;;4.40;81.40;;;;;;4723908;30;20039;-90
2024/01/15 06:14:00;;;;;;;1.80;1.70;;;4.40;81.40;;;;;;4724112;30;20033;-90
2024/01/15 06:16:26;;;;;;;1.67;1.40;;;4.40;81.40;;;;;;4733032;30;20408;-91
2024/01/15 06:18:52;;;;;;;1.40;1.30;;;4.40;81.40;;;;;;4730800;30;20068;-87
2024/01/15 06:21:17;;;;;;;1.52;1.42;;;4.30;81.40;;;;;;4735390;30;20071;-90
2024/01/15 06:23:43;;;;;;;1.67;1.55;;;4.40;81.40;;;;;;4728150;30;20048;-88
2024/01/15 06:26:11;;;;;;;1.40;1.30;;;4.40;81.40;;;;;;4733638;30;20028;-88
2024/01/15 06:28:37;;;;;;;1.65;1.55;;;4.40;81.40;;;;;;4721086;30;20047;-87
2024/01/15 06:31:03;;;;;;;1.55;1.40;;;4.40;81.40;;;;;;4717379;30;20040;-89
2024/01/15 06:33:29;;;;;;;1.50;1.40;;;4.40;81.40;;;;;;4715889;30;20033;-90
2024/01/15 06:35:55;;;;;;;1.58;1.48;;;4.40;81.40;;;;;;4731718;30;20052;-89
2024/01/15 06:38:21;;;;;;;1.30;1.30;;;4.40;81.40;;;;;;4731203;30;20033;-88
2024/01/15 06:40:48;;;;;;;1.42;1.33;;;4.40;81.40;;;;;;4738370;30;20055;-86
2024/01/15 06:43:15;;;;;;;2.00;1.80;;;4.40;81.40;;;;;;4735510;30;20032;-89
2024/01/15 06:45:41;;;;;;;1.45;1.35;;;4.40;81.40;;;;;;4735283;30;20032;-92
2024/01/15 06:48:10;;;;;;;2.10;1.45;;;4.40;81.40;;;;;;4723971;30;20086;-89
2024/01/15 06:50:35;;;;;;;1.92;1.55;;;4.40;81.40;;;;;;4729134;30;20066;-91
2024/01/15 06:53:01;;;;;;;1.52;1.38;;;4.40;82.00;;;;;;4738852;30;20036;-91
2024/01/15 06:55:28;;;;;;;3.17;1.50;;;4.40;81.40;;;;;;4735420;30;20033;-92
2024/01/15 06:57:53;;;;;;;1.50;1.40;;;4.40;81.40;;;;;;4736159;30;20036;-92
2024/01/15 07:00:19;;;;;;;2.08;1.55;;;4.40;81.40;;;;;;4727782;30;20106;-92
2024/01/15 07:02:45;;;;;;;2.80;1.58;;;4.40;81.40;;;;;;4724726;30;20482;-92
2024/01/15 07:05:11;;;;;;;1.80;1.70;;;4.40;81.40;;;;;;4738654;30;20036;-92
2024/01/15 07:07:37;;;;;;;1.88;1.50;;;4.40;81.40;;;;;;4745690;30;20024;-91
2024/01/15 07:10:04;;;;;;;1.60;1.50;;;4.40;81.40;;;;;;4745921;30;20482;-92
2024/01/15 07:12:30;;;;;;;2.08;1.67;;;4.40;81.40;;;;;;4726415;30;20032;-90
2024/01/15 07:14:58;;;;;;;2.10;1.90;;;4.40;81.40;;;;;;4737805;30;20052;-91
2024/01/15 07:17:24;;;;;;;1.63;1.52;;;4.40;81.40;;;;;;4732575;30;20138;-91
2024/01/15 07:19:50;;;;;;;1.80;1.70;;;4.40;81.40;;;;;;4742845;30;20087;-91
2024/01/15 07:22:17;;;;;;;1.70;1.60;;;4.40;81.40;;;;;;4719262;30;20033;-91
2024/01/15 07:24:43;;;;;;;1.98;1.88;;;4.40;81.40;;;;;;4737029;30;20036;-92
2024/01/15 07:27:09;;;;;;;1.80;1.70;;;4.40;81.40;;;;;;4733210;30;20032;-91
2024/01/15 07:29:38;;;;;;;2.95;2.00;;;4.40;81.40;;;;;;4746226;30;20066;-91
2024/01/15 07:32:04;;;;;;;2.00;1.80;;;4.40;81.40;;;;;;4723960;30;20055;-91
2024/01/15 07:34:30;;;;;;;3.38;2.50;;;4.40;81.40;;;;;;4743240;30;20047;-91
2024/01/15 07:36:57;;;;;;;2.38;1.92;;;4.40;81.40;;;;;;4725600;30;20056;-91
2024/01/15 07:39:24;;;;;;;2.35;2.15;;;4.40;81.40;;;;;;4735125;30;20033;-89
2024/01/15 07:41:51;;;;;;;2.13;1.98;;;4.40;81.40;;;;;;4722309;30;20029;-89
2024/01/15 07:44:17;;;;;;;2.97;2.20;;;4.40;81.40;;;;;;4737387;30;20109;-90
2024/01/15 07:46:48;;;;;;;2.67;2.30;;;4.40;81.40;;;;;;4737096;30;20064;-90
2024/01/15 07:49:14;;;;;;;2.40;2.20;;;4.40;81.40;;;;;;4717707;30;20136;-89
2024/01/15 07:51:40;;;;;;;2.50;2.30;;;4.50;81.50;;;;;;4734513;30;20036;-90
2024/01/15 07:54:07;;;;;;;2.92;2.53;;;4.40;81.40;;;;;;4739961;30;20506;-90
2024/01/15 07:56:33;;;;;;;2.80;2.30;;;4.40;81.40;;;;;;4722123;30;20040;-90
2024/01/15 07:58:59;;;;;;;2.60;2.40;;;4.40;81.40;;;;;;4727481;30;20048;-90
2024/01/15 08:01:24;;;;;;;3.33;2.60;;;4.40;81.40;;;;;;4731200;30;20098;-93
2024/01/15 08:03:50;;;;;;;2.88;2.42;;;4.40;81.40;;;;;;4728120;30;20048;-91
2024/01/15 08:06:16;;;;;;;2.72;2.35;;;4.40;81.40;;;;;;4729557;30;20039;-92
2024/01/15 08:08:42;;;;;;;2.90;2.40;;;4.40;81.40;;;;;;4742009;30;20044;-93
2024/01/15 08:11:07;;;;;;;2.92;2.42;;;4.40;81.40;;;;;;4730507;30;20032;-91
2024/01/15 08:13:33;;;;;;;2.40;2.20;;;4.40;81.40;;;;;;4732487;30;20135;-89
2024/01/15 08:15:59;;;;;;;3.38;2.20;;;4.40;81.40;;;;;;4724495;30;20046;-90
2024/01/15 08:18:25;;;;;;;2.28;2.08;;;4.40;81.40;;;;;;4735663;30;20104;-91
2024/01/15 08:20:52;;;;;;;3.00;2.60;;;4.40;81.40;;;;;;4728950;30;20040;-90
2024/01/15 08:23:17;;;;;;;2.53;2.33;;;4.40;81.40;;;;;;4734559;30;20032;-91
2024/01/15 08:25:43;;;;;;;3.13;2.28;;;4.40;81.40;;;;;;4726857;30;20456;-90
2024/01/15 08:28:09;;;;;;;2.85;2.40;;;4.40;81.40;;;;;;4745597;30;20375;-92
2024/01/15 08:30:34;;;;;;;2.65;2.45;;;4.40;82.00;;;;;;4733958;30;20040;-92
2024/01/15 08:33:00;;;;;;;2.40;2.15;;;4.40;81.40;;;;;;4714211;30;20123;-95
2024/01/15 08:35:26;;;;;;;2.30;2.10;;;4.40;81.40;;;;;;4734866;30;20395;-96
2024/01/15 08:37:52;;;;;;;2.42;2.05;;;4.40;81.40;;;;;;4721475;30;20036;-96
2024/01/15 08:40:18;;;;;;;2.55;2.35;;;4.40;81.40;;;;;;4740751;30;20039;-96
2024/01/15 08:42:47;;;;;;;2.15;1.98;;;4.40;81.40;;;;;;4726290;30;20122;-95
2024/01/15 08:45:14;;;;;;;2.25;2.08;;;4.40;81.40;;;;;;4736107;30;20111;-94
2024/01/15 08:47:39;;;;;;;2.22;2.03;;;4.40;81.40;;;;;;4742389;30;20102;-94
2024/01/15 08:50:06;;;;;;;2.35;2.15;;;4.40;81.40;;;;;;4735350;30;20024;-95
2024/01/15 08:52:32;;;;;;;2.20;2.00;;;4.40;81.40;;;;;;4729311;30;20064;-95
2024/01/15 08:54:58;;;;;;;2.30;2.10;;;4.40;81.40;;;;;;4743807;30;20071;-93
2024/01/15 08:57:23;;;;;;;2.33;2.08;;;4.40;81.40;;;;;;4730302;30;20040;-94
2024/01/15 08:59:49;;;;;;;2.30;2.10;;;4.40;81.40;;;;;;4736367;30;20043;-95
2024/01/15 09:02:15;;;;;;;2.30;2.10;;;4.40;81.40;;;;;;4730944;30;20031;-93
2024/01/15 09:04:41;;;;;;;2.58;1.90;;;4.40;81.40;;;;;;4720395;30;20048;-95
2024/01/15 09:07:10;;;;;;;2.08;1.88;;;4.40;81.40;;;;;;4746606;30;20471;-95
2024/01/15 09:09:36;;;;;;;2.25;2.00;;;4.40;81.50;;;;;;4737354;30;20068;-94
2024/01/15 09:12:02;;;;;;;2.10;1.90;;;4.40;81.50;;;;;;4735673;30;20047;-95
2024/01/15 09:14:29;;;;;;;2.45;2.05;;;4.40;81.50;;;;;;4737722;30;20103;-95
2024/01/15 09:16:54;;;;;;;1.98;1.83;;;4.40;81.50;;;;;;4734927;30;20478;-94
2024/01/15 09:19:20;;;;;;;2.20;1.80;;;4.40;81.50;;;;;;4727313;30;20085;-94
2024/01/15 09:21:46;;;;;;;2.58;2.38;;;4.50;81.50;;;;;;4745527;30;20032;-94
2024/01/15 09:24:11;;;;;;;2.17;1.92;;;4.40;81.50;;;;;;4720488;30;20024;-94
2024/01/15 09:26:37;;;;;;;1.95;1.80;;;4.40;81.50;;;;;;4736114;30;20044;-94
2024/01/15 09:29:03;;;;;;;1.80;1.70;;;4.40;81.50;;;;;;4733896;30;20033;-94
2024/01/15 09:31:29;;;;;;;1.80;1.70;;;4.40;81.50;;;;;;4735790;30;20043;-93
2024/01/15 09:33:56;;;;;;;1.90;1.80;;;4.40;81.50;;;;;;4734618;30;20035;-93
2024/01/15 09:36:22;;;;;;;2.03;1.83;;;4.50;81.50;;;;;;4740861;30;20060;-93
2024/01/15 09:38:48;;;;;;;2.15;1.95;;;4.50;81.50;;;;;;4718787;30;20036;-93
2024/01/15 09:41:15;;;;;;;2.20;1.80;;;4.50;81.50;;;;;;4743742;30;20422;-93
2024/01/15 09:43:41;;;;;;;2.03;1.83;;;4.50;81.50;;;;;;4738604;30;20119;-93
2024/01/15 09:46:07;;;;;;;2.33;1.98;;;4.50;81.50;;;;;;4719879;30;20036;-94
2024/01/15 09:48:34;;;;;;;2.35;1.67;;;4.50;81.50;;;;;;4730397;30;20043;-94
2024/01/15 09:51:02;;;;;;;2.53;1.90;;;4.40;81.40;;;;;;4739083;30;20043;-93
2024/01/15 09:53:28;;;;;;;2.17;1.88;;;4.50;81.50;;;;;;4719439;30;20119;-94
2024/01/15 09:55:54;;;;;;;2.28;1.98;;;4.50;81.50;;;;;;4746975;30;20422;-95
2024/01/15 09:58:20;;;;;;;2.40;2.20;;;4.50;81.50;;;;;;4729440;30;20057;-93
2024/01/15 10:00:50;;;;;;;2.10;1.90;;;4.40;81.40;;;;;;4731890;30;20094;-95
2024/01/15 10:03:15;;;;;;;1.77;1.67;;;4.50;81.50;;;;;;4719178;30;20055;-93
2024/01/15 10:05:42;;;;;;;2.08;1.90;;;4.50;82.10;;;;;;4718241;30;20485;-94
2024/01/15 10:08:07;;;;;;;2.45;1.70;;;4.50;81.50;;;;;;4730158;30;20033;-93
2024/01/15 10:10:36;;;;;;;1.80;1.70;;;4.50;81.50;;;;;;4726274;30;20684;-93
2024/01/15 10:13:04;;;;;;;1.70;1.60;;;4.50;81.50;;;;;;4731739;30;20039;-92
2024/01/15 10:15:29;;;;;;;2.17;1.98;;;4.50;81.40;;;;;;4744271;30;20032;-90
2024/01/15 10:17:55;;;;;;;2.42;1.70;;;4.50;81.40;;;;;;4741996;30;20082;-94
2024/01/15 10:20:24;;;;;;;1.60;1.50;;;4.50;81.40;;;;;;4727690;30;20502;-90
2024/01/15 10:22:50;;;;;;;1.63;1.52;;;4.50;81.40;;;;;;4733391;30;20029;-92
2024/01/15 10:25:22;;;;;;;1.50;1.40;;;4.50;81.40;;;;;;4724563;30;20060;-91
2024/01/15 10:28:02;;;;;;;1.50;1.40;;;4.50;81.50;;;;;;4717522;30;20025;-91
2024/01/15 10:30:28;;;;;;;1.60;1.50;;;4.50;81.50;;;;;;4736984;30;20067;-93
2024/01/15 10:33:02;;;;;;;1.75;1.65;;;4.50;81.40;;;;;;4732394;30;20067;-91
2024/01/15 10:35:32;;;;;;;1.58;1.48;;;4.50;81.50;;;;;;4716233;30;20134;-93
2024/01/15 10:38:00;;;;;;;2.50;1.63;;;4.50;81.50;;;;;;4742545;30;20123;-91
2024/01/15 10:40:27;;;;;;;1.60;1.50;;;4.50;81.40;;;;;;4733789;30;20063;-91
2024/01/15 10:42:53;;;;;;;1.58;1.48;;;4.50;81.50;;;;;;4724210;30;20040;-91
2024/01/15 10:45:19;;;;;;;1.83;1.73;;;4.50;81.50;;;;;;4737891;30;20039;-89
2024/01/15 10:47:45;;;;;;;1.50;1.40;;;4.50;81.40;;;;;;4740681;30;20027;-91
2024/01/15 10:50:12;;;;;;;1.55;1.45;;;4.50;81.40;;;;;;4722961;30;20112;-91
2024/01/15 10:52:43;;;;;;;2.72;1.50;;;4.50;81.40;;;;;;4740484;30;20111;-89
2024/01/15 10:55:09;;;;;;;2.13;1.70;;;4.60;81.50;;;;;;4733792;30;20024;-90
2024/01/15 10:57:38;;;;;;;1.65;1.55;;;4.50;81.40;;;;;;4738018;30;20490;-90
2024/01/15 11:00:05;;;;;;;1.70;1.60;;;4.60;81.50;;;;;;4726900;30;20036;-92
2024/01/15 11:02:34;;;;;;;1.60;1.50;;;4.60;81.50;;;;;;4753349;30;20085;-92
2024/01/15 11:05:00;;;;;;;1.67;1.58;;;4.60;81.50;;;;;;4739611;30;20115;-91
2024/01/15 11:07:26;;;;;;;1.60;1.50;;;4.60;81.50;;;;;;4755040;30;20063;-92
2024/01/15 11:09:52;;;;;;;1.98;1.80;;;4.60;81.50;;;;;;4724028;30;20036;-92
2024/01/15 11:12:19;;;;;;;1.98;1.75;;;4.60;81.50;;;;;;4737011;30;20178;-91
2024/01/15 11:14:49;;;;;;;2.13;1.90;;;4.60;81.50;;;;;;4723221;30;20248;-90
2024/01/15 11:17:16;;;;;;;1.80;1.67;;;4.60;81.50;;;;;;4736496;30;20461;-91
2024/01/15 11:19:42;;;;;;;1.73;1.58;;;4.60;81.40;;;;;;4729226;30;20089;-89
2024/01/15 11:22:09;;;;;;;1.65;1.55;;;4.60;82.00;;;;;;4726892;30;20077;-90
2024/01/15 11:24:40;;;;;;;2.97;1.90;;;4.70;81.50;;;;;;4744345;30;20140;-91
2024/01/15 11:27:07;;;;;;;2.10;1.88;;;4.60;81.40;;;;;;4749136;30;20517;-92
2024/01/15 11:29:37;;;;;;;2.28;1.77;;;4.70;81.50;;;;;;4734764;30;20024;-91
2024/01/15 11:32:04;;;;;;;1.90;1.70;;;4.70;81.50;;;;;;4738151;30;20028;-90
2024/01/15 11:34:56;;;;;;;2.05;1.77;;;4.70;81.40;;;;;;4751276;30;20103;-91
2024/01/15 11:37:23;;;;;;;1.70;1.60;;;4.70;81.50;;;;;;4736456;30;20082;-91
2024/01/15 11:39:55;;;;;;;1.73;1.63;;;4.70;81.40;;;;;;4744265;30;20036;-90
2024/01/15 11:42:24;;;;;;;1.70;1.60;;;4.70;82.10;;;;;;4748971;30;20114;-90
2024/01/15 11:44:50;;;;;;;1.95;1.80;;;4.70;81.40;;;;;;4724929;30;20114;-90
2024/01/15 11:47:21;;;;;;;2.03;1.83;;;4.70;81.40;;;;;;4728910;30;20059;-90
2024/01/15 11:50:08;;;;;;;2.03;1.70;;;4.70;81.40;;;;;;4735997;30;20055;-89
2024/01/15 11:52:38;;;;;;;1.83;1.63;;;4.80;81.50;;;;;;4734656;30;20040;-89
2024/01/15 11:55:07;;;;;;;1.63;1.52;;;4.80;81.40;;;;;;4739021;30;20119;-90
2024/01/15 11:57:46;;;;;;;2.30;1.77;;;4.80;81.40;;;;;;4744539;30;20478;-88
2024/01/15 12:00:13;;;;;;;2.22;1.63;;;4.80;81.50;;;;;;4730649;30;20056;-87
2024/01/15 12:02:43;;;;;;;3.33;1.80;;;4.80;81.40;;;;;;4742092;30;20032;-88
2024/01/15 12:05:12;;;;;;;1.70;1.52;;;4.80;81.50;;;;;;4732670;30;20032;-91
2024/01/15 12:07:42;;;;;;;2.17;1.70;;;4.70;81.40;;;;;;4736899;30;20044;-89
2024/01/15 12:10:13;;;;;;;1.52;1.42;;;4.80;81.40;;;;;;4744123;30;20025;-90
2024/01/15 12:12:58;;;;;;;1.60;1.50;;;4.80;81.40;;;;;;4729271;30;20036;-90
2024/01/15 12:15:24;;;;;;;;;;;4.80;81.50;;;;;;4731635;30;20121;-91
2024/01/15 12:17:50;;;;;;;1.80;1.70;;;4.80;81.30;;;;;;4737103;30;19971;-90
2024/01/15 12:20:18;;;;;;;1.50;1.40;;;4.80;81.30;;;;;;4718804;30;20032;-90
2024/01/15 12:22:44;;;;;;;3.42;2.00;;;4.80;81.40;;;;;;4727904;30;20294;-92
2024/01/15 12:25:10;;;;;;;2.47;1.63;;;4.80;81.40;;;;;;4735091;30;20063;-92
2024/01/15 12:27:36;;;;;;;1.75;1.50;;;4.80;81.40;;;;;;4730599;30;20087;-92
2024/01/15 12:30:02;;;;;;;2.05;1.50;;;4.80;81.50;;;;;;4720730;30;20043;-90
2024/01/15 12:32:29;;;;;;;1.67;1.50;;;4.80;81.40;;;;;;4730894;30;20025;-91
2024/01/15 12:34:55;;;;;;;1.70;1.50;;;4.80;81.40;;;;;;4736103;30;20034;-92
2024/01/15 12:37:21;;;;;;;1.65;1.30;;;4.80;81.40;;;;;;4748116;30;20057;-91
2024/01/15 12:39:47;;;;;;;1.73;1.60;;;4.80;81.40;;;;;;4720386;30;20032;-92
2024/01/15 12:42:17;;;;;;;1.60;1.50;;;4.80;81.40;;;;;;4724841;30;20032;-91
2024/01/15 12:44:44;;;;;;;2.03;1.58;;;4.90;81.50;;;;;;4733014;30;20028;-90
2024/01/15 12:47:10;;;;;;;1.67;1.55;;;4.90;81.40;;;;;;4725009;30;20054;-91
2024/01/15 12:49:37;;;;;;;1.55;1.45;;;4.90;81.40;;;;;;4729220;30;20037;-90
2024/01/15 12:52:03;;;;;;;1.50;1.40;;;4.90;81.50;;;;;;4725703;30;20079;-91
2024/01/15 12:54:29;;;;;;;1.60;1.50;;;4.90;81.40;;;;;;4727869;30;20036;-90